createdAt,value
2023-02-15T00:01:46.592Z,1.70
2023-02-15T00:03:49.569Z,1.60
2023-02-15T00:05:52.096Z,1.70
2023-02-15T00:07:54.601Z,1.70
2023-02-15T00:09:57.126Z,1.70
2023-02-15T00:11:59.710Z,1.50
2023-02-15T00:14:02.366Z,1.50
2023-02-15T00:16:06.039Z,1.30
2023-02-15T00:18:08.708Z,1.40
2023-02-15T00:20:11.616Z,1.50
2023-02-15T00:22:14.119Z,1.50
2023-02-15T00:24:17.729Z,1.50
2023-02-15T00:26:20.216Z,1.50
2023-02-15T00:28:23.941Z,1.40
2023-02-15T00:30:26.801Z,1.30
2023-02-15T00:32:29.534Z,1.40
2023-02-15T00:34:32.166Z,1.30
2023-02-15T00:36:35.385Z,1.30
2023-02-15T00:38:38.010Z,1.30
2023-02-15T00:40:40.752Z,1.30
2023-02-15T00:42:43.238Z,1.60
2023-02-15T00:44:45.767Z,1.50
2023-02-15T00:46:48.445Z,1.70
2023-02-15T00:48:50.952Z,1.40
2023-02-15T00:50:54.604Z,1.30
2023-02-15T00:52:57.202Z,1.20
2023-02-15T00:54:59.837Z,1.20
2023-02-15T00:57:02.757Z,1.20
2023-02-15T00:59:05.369Z,0.90
2023-02-15T01:01:10.241Z,0.60
2023-02-15T01:03:13.526Z,0.60
2023-02-15T01:05:16.329Z,0.80
2023-02-15T01:07:19.871Z,0.80
2023-02-15T01:09:22.892Z,0.70
2023-02-15T01:11:25.547Z,0.70
2023-02-15T01:13:28.268Z,0.70
2023-02-15T01:15:31.177Z,0.80
2023-02-15T01:17:35.880Z,0.80
2023-02-15T01:19:39.788Z,0.80
2023-02-15T01:21:42.687Z,0.80
2023-02-15T01:23:46.132Z,0.80
2023-02-15T01:25:49.063Z,0.80
2023-02-15T01:27:51.605Z,0.70
2023-02-15T01:29:54.254Z,0.60
2023-02-15T01:31:58.428Z,0.70
2023-02-15T01:34:01.066Z,0.70
2023-02-15T01:36:04.027Z,0.80
2023-02-15T01:38:08.221Z,0.80
2023-02-15T01:40:13.387Z,0.80
2023-02-15T01:42:17.881Z,0.70
2023-02-15T01:44:40.767Z,0.70
2023-02-15T01:46:45.174Z,0.80
2023-02-15T01:48:49.861Z,0.80
2023-02-15T01:50:54.434Z,0.70
2023-02-15T01:52:59.207Z,0.70
2023-02-15T01:55:07.315Z,0.70
2023-02-15T01:57:12.278Z,0.60
2023-02-15T01:59:16.692Z,0.50
2023-02-15T02:01:20.182Z,0.50
2023-02-15T02:03:24.626Z,0.40
2023-02-15T02:05:27.259Z,0.50
2023-02-15T02:07:31.690Z,0.50
2023-02-15T02:09:36.749Z,0.60
2023-02-15T02:11:40.392Z,0.60
2023-02-15T02:13:44.019Z,0.70
2023-02-15T02:15:48.497Z,0.40
2023-02-15T02:17:55.614Z,0.70
2023-02-15T02:20:07.604Z,0.60
2023-02-15T02:22:19.063Z,0.60
2023-02-15T02:24:34.512Z,0.60
2023-02-15T02:26:46.756Z,0.40
2023-02-15T02:29:07.635Z,0.30
2023-02-15T02:31:18.488Z,0.20
2023-02-15T02:33:35.344Z,0.20
2023-02-15T02:35:40.299Z,0.30
2023-02-15T02:37:46.452Z,0.10
2023-02-15T02:39:51.502Z,0.00
2023-02-15T02:41:57.485Z,0.00
2023-02-15T02:44:04.511Z,0.00
2023-02-15T02:46:08.858Z,0.10
2023-02-15T02:48:13.246Z,0.20
2023-02-15T02:50:16.770Z,0.20
2023-02-15T02:52:40.011Z,0.00
2023-02-15T02:54:42.698Z,-0.10
2023-02-15T02:56:47.191Z,-0.20
2023-02-15T02:58:51.412Z,0.00
2023-02-15T03:00:55.631Z,0.00
2023-02-15T03:03:00.079Z,0.00
2023-02-15T03:05:05.970Z,0.10
2023-02-15T03:07:10.485Z,0.10
2023-02-15T03:09:15.098Z,0.20
2023-02-15T03:11:17.901Z,0.20
2023-02-15T03:13:21.030Z,0.00
2023-02-15T03:15:25.584Z,-0.10
2023-02-15T03:17:30.575Z,-0.20
2023-02-15T03:19:36.035Z,-0.10
2023-02-15T03:21:40.126Z,0.00
2023-02-15T03:23:43.930Z,-0.10
2023-02-15T03:25:48.531Z,0.00
2023-02-15T03:27:53.268Z,0.00
2023-02-15T03:29:57.895Z,0.00
2023-02-15T03:32:02.531Z,-0.10
2023-02-15T03:34:07.015Z,-0.10
2023-02-15T03:36:11.374Z,0.00
2023-02-15T03:38:15.800Z,-0.10
2023-02-15T03:40:38.345Z,0.00
2023-02-15T03:42:41.720Z,0.10
2023-02-15T03:44:48.233Z,0.10
2023-02-15T03:46:53.687Z,0.00
2023-02-15T03:48:57.739Z,0.00
2023-02-15T03:51:20.087Z,0.00
2023-02-15T03:53:23.625Z,0.00
2023-02-15T03:55:26.247Z,0.00
2023-02-15T03:57:47.798Z,0.00
2023-02-15T04:00:08.481Z,0.00
2023-02-15T04:02:14.716Z,0.00
2023-02-15T04:04:19.153Z,0.00
2023-02-15T04:06:21.653Z,0.00
2023-02-15T04:08:26.838Z,-0.10
2023-02-15T04:10:47.285Z,-0.20
2023-02-15T04:12:49.813Z,-0.20
2023-02-15T04:15:10.292Z,-0.30
2023-02-15T04:17:13.211Z,-0.30
2023-02-15T04:19:33.618Z,0.00
2023-02-15T04:21:54.330Z,-0.10
2023-02-15T04:24:15.262Z,-0.10
2023-02-15T04:26:18.072Z,-0.10
2023-02-15T04:28:20.553Z,-0.10
2023-02-15T04:30:25.037Z,-0.10
2023-02-15T04:32:27.876Z,-0.20
2023-02-15T04:34:30.443Z,-0.10
2023-02-15T04:36:32.984Z,-0.20
2023-02-15T04:38:35.686Z,-0.20
2023-02-15T04:40:38.279Z,-0.20
2023-02-15T04:42:40.848Z,-0.20
2023-02-15T04:44:43.344Z,-0.40
2023-02-15T04:46:46.022Z,-0.40
2023-02-15T04:48:48.520Z,-0.30
2023-02-15T04:50:51.404Z,-0.30
2023-02-15T04:52:53.974Z,0.90
2023-02-15T04:54:57.560Z,-0.20
2023-02-15T04:57:00.041Z,-0.20
2023-02-15T04:59:02.671Z,-0.20
2023-02-15T05:01:05.202Z,-0.20
2023-02-15T05:03:07.772Z,-0.20
2023-02-15T05:05:12.163Z,-0.20
2023-02-15T05:07:15.584Z,-0.30
2023-02-15T05:09:18.191Z,-0.20
2023-02-15T05:11:20.691Z,-0.20
2023-02-15T05:13:23.490Z,-0.20
2023-02-15T05:15:26.021Z,-0.20
2023-02-15T05:17:28.627Z,-0.20
2023-02-15T05:19:31.224Z,-0.30
2023-02-15T05:21:34.021Z,-0.20
2023-02-15T05:23:36.850Z,-0.30
2023-02-15T05:25:57.231Z,-0.30
2023-02-15T05:28:17.921Z,-0.40
2023-02-15T05:30:20.798Z,-0.50
2023-02-15T05:32:23.461Z,-0.50
2023-02-15T05:34:26.083Z,-0.40
2023-02-15T05:36:29.252Z,-0.40
2023-02-15T05:38:31.897Z,-0.50
2023-02-15T05:40:34.442Z,-0.50
2023-02-15T05:42:36.918Z,-0.50
2023-02-15T05:44:39.431Z,-0.50
2023-02-15T05:46:41.942Z,-0.40
2023-02-15T05:48:44.451Z,-0.50
2023-02-15T05:50:47.332Z,-0.40
2023-02-15T05:52:52.260Z,-0.40
2023-02-15T05:54:54.574Z,-0.50
2023-02-15T05:56:57.043Z,-0.50
2023-02-15T05:58:59.581Z,-0.60
2023-02-15T06:01:05.009Z,-0.60
2023-02-15T06:03:07.589Z,-0.50
2023-02-15T06:05:10.160Z,-0.50
2023-02-15T06:07:13.324Z,-0.60
2023-02-15T06:09:18.231Z,-0.70
2023-02-15T06:11:20.937Z,-0.70
2023-02-15T06:13:23.471Z,-0.60
2023-02-15T06:15:26.119Z,-0.60
2023-02-15T06:17:28.719Z,-0.60
2023-02-15T06:19:31.203Z,-0.50
2023-02-15T06:21:33.704Z,-0.60
2023-02-15T06:23:36.252Z,-0.60
2023-02-15T06:25:40.007Z,-0.60
2023-02-15T06:27:43.307Z,-0.60
2023-02-15T06:29:45.830Z,-0.60
2023-02-15T06:31:48.482Z,-0.60
2023-02-15T06:33:51.254Z,-0.70
2023-02-15T06:35:54.015Z,-0.60
2023-02-15T06:37:56.523Z,-0.60
2023-02-15T06:39:59.022Z,-0.60
2023-02-15T06:42:01.679Z,-0.50
2023-02-15T06:44:04.488Z,-0.50
2023-02-15T06:46:07.151Z,-0.50
2023-02-15T06:48:10.163Z,-0.50
2023-02-15T06:50:12.849Z,-0.50
2023-02-15T06:52:15.444Z,-0.50
2023-02-15T06:54:18.110Z,-0.40
2023-02-15T06:56:20.568Z,-0.40
2023-02-15T06:58:23.232Z,-0.50
2023-02-15T07:00:25.924Z,-0.40
2023-02-15T07:02:28.844Z,-0.40
2023-02-15T07:04:31.594Z,-0.50
2023-02-15T07:06:34.514Z,-0.50
2023-02-15T07:08:37.761Z,-0.60
2023-02-15T07:10:40.223Z,-0.50
2023-02-15T07:12:42.869Z,-0.40
2023-02-15T07:14:45.372Z,-0.40
2023-02-15T07:16:47.829Z,-0.40
2023-02-15T07:18:50.351Z,-0.40
2023-02-15T07:20:52.868Z,-0.40
2023-02-15T07:22:55.462Z,-0.50
2023-02-15T07:24:58.314Z,-0.40
2023-02-15T07:27:00.925Z,-0.40
2023-02-15T07:29:03.900Z,-0.40
2023-02-15T07:31:06.512Z,-0.40
2023-02-15T07:33:24.150Z,-0.40
2023-02-15T07:35:27.796Z,-0.40
2023-02-15T07:37:30.282Z,-0.40
2023-02-15T07:39:32.793Z,-0.30
2023-02-15T07:41:35.485Z,-0.30
2023-02-15T07:43:41.573Z,-0.20
2023-02-15T07:45:44.271Z,-0.30
2023-02-15T07:47:46.899Z,-0.20
2023-02-15T07:49:50.078Z,-0.20
2023-02-15T07:51:52.582Z,-0.10
2023-02-15T07:53:55.732Z,0.00
2023-02-15T07:56:00.724Z,0.00
2023-02-15T07:58:03.515Z,0.10
2023-02-15T08:00:08.819Z,0.20
2023-02-15T08:02:13.487Z,0.30
2023-02-15T08:04:16.747Z,0.50
2023-02-15T08:06:19.472Z,0.70
2023-02-15T08:08:31.048Z,0.90
2023-02-15T08:10:51.979Z,1.10
2023-02-15T08:12:54.564Z,1.20
2023-02-15T08:14:57.334Z,1.50
2023-02-15T08:17:02.537Z,1.60
2023-02-15T08:19:06.479Z,1.90
2023-02-15T08:21:09.157Z,2.10
2023-02-15T08:23:12.123Z,2.40
2023-02-15T08:25:14.732Z,2.60
2023-02-15T08:27:17.296Z,2.90
2023-02-15T08:29:21.661Z,3.20
2023-02-15T08:31:24.473Z,3.60
2023-02-15T08:33:27.069Z,3.90
2023-02-15T08:35:29.568Z,4.10
2023-02-15T08:37:32.237Z,4.40
2023-02-15T08:39:36.960Z,4.60
2023-02-15T08:41:40.073Z,4.80
2023-02-15T08:43:43.474Z,5.10
2023-02-15T08:45:46.806Z,5.40
2023-02-15T08:47:51.857Z,5.20
2023-02-15T08:49:54.425Z,5.50
2023-02-15T08:51:56.936Z,5.60
2023-02-15T08:54:00.615Z,5.50
2023-02-15T08:56:07.006Z,6.20
2023-02-15T08:58:09.500Z,6.00
2023-02-15T09:00:14.023Z,6.10
2023-02-15T09:02:16.738Z,6.10
2023-02-15T09:04:19.690Z,6.10
2023-02-15T09:06:22.975Z,6.20
2023-02-15T09:08:25.648Z,6.20
2023-02-15T09:10:28.136Z,6.20
2023-02-15T09:12:30.646Z,6.10
2023-02-15T09:14:33.808Z,6.00
2023-02-15T09:16:37.888Z,6.10
2023-02-15T09:18:40.447Z,6.30
2023-02-15T09:20:42.920Z,6.30
2023-02-15T09:22:45.464Z,6.30
2023-02-15T09:24:47.950Z,6.30
2023-02-15T09:26:50.568Z,6.40
2023-02-15T09:28:55.976Z,6.40
2023-02-15T09:30:58.504Z,6.30
2023-02-15T09:33:01.019Z,6.50
2023-02-15T09:35:03.516Z,6.60
2023-02-15T09:37:06.993Z,6.80
2023-02-15T09:39:10.809Z,6.90
2023-02-15T09:41:32.420Z,7.10
2023-02-15T09:43:36.958Z,7.30
2023-02-15T09:46:01.890Z,7.50
2023-02-15T09:48:23.604Z,7.60
2023-02-15T09:50:28.033Z,7.80
2023-02-15T09:52:37.388Z,8.00
2023-02-15T09:54:44.256Z,8.30
2023-02-15T09:56:48.687Z,8.60
2023-02-15T09:58:53.450Z,8.70
2023-02-15T10:00:58.130Z,8.90
2023-02-15T10:03:12.239Z,9.00
2023-02-15T10:05:19.298Z,9.20
2023-02-15T10:07:25.571Z,9.30
2023-02-15T10:09:31.800Z,9.50
2023-02-15T10:11:40.455Z,9.70
2023-02-15T10:13:44.718Z,9.80
2023-02-15T10:15:52.785Z,9.90
2023-02-15T10:17:59.460Z,10.10
2023-02-15T10:20:05.985Z,10.20
2023-02-15T10:22:12.188Z,10.30
2023-02-15T10:24:25.313Z,10.30
2023-02-15T10:26:29.372Z,10.70
2023-02-15T10:28:33.692Z,11.10
2023-02-15T10:30:39.779Z,11.40
2023-02-15T10:32:45.712Z,11.50
2023-02-15T10:34:51.036Z,11.70
2023-02-15T10:37:04.961Z,12.00
2023-02-15T10:39:09.568Z,12.30
2023-02-15T10:41:17.011Z,12.40
2023-02-15T10:43:26.972Z,12.30
2023-02-15T10:45:31.715Z,12.50
2023-02-15T10:47:52.888Z,12.80
2023-02-15T10:50:13.912Z,13.00
2023-02-15T10:52:21.760Z,12.90
2023-02-15T10:54:29.104Z,12.90
2023-02-15T10:56:33.650Z,13.30
2023-02-15T10:58:44.647Z,13.40
2023-02-15T11:00:49.197Z,13.50
2023-02-15T11:02:56.516Z,13.60
2023-02-15T11:05:03.245Z,13.70
2023-02-15T11:07:08.259Z,13.80
2023-02-15T11:09:13.448Z,14.10
2023-02-15T11:11:18.356Z,14.20
2023-02-15T11:13:22.303Z,14.30
2023-02-15T11:15:28.367Z,14.60
2023-02-15T11:17:34.118Z,14.60
2023-02-15T11:19:39.290Z,14.50
2023-02-15T11:21:44.575Z,14.60
2023-02-15T11:23:49.077Z,14.50
2023-02-15T11:25:55.804Z,14.50
2023-02-15T11:27:59.676Z,14.50
2023-02-15T11:30:03.924Z,14.60
2023-02-15T11:32:14.921Z,14.60
2023-02-15T11:34:19.816Z,14.50
2023-02-15T11:36:24.832Z,14.50
2023-02-15T11:38:30.523Z,14.70
2023-02-15T11:40:35.217Z,14.70
2023-02-15T11:42:37.862Z,14.70
2023-02-15T11:44:43.030Z,14.60
2023-02-15T11:46:46.044Z,14.80
2023-02-15T11:48:49.308Z,14.90
2023-02-15T11:50:51.822Z,14.90
2023-02-15T11:52:56.283Z,15.10
2023-02-15T11:54:58.761Z,15.00
2023-02-15T11:57:03.089Z,15.20
2023-02-15T11:59:08.191Z,14.80
2023-02-15T12:01:12.763Z,14.80
2023-02-15T12:03:17.764Z,14.60
2023-02-15T12:05:23.094Z,14.80
2023-02-15T12:07:27.587Z,14.70
2023-02-15T12:09:32.649Z,15.10
2023-02-15T12:11:36.928Z,15.10
2023-02-15T12:13:43.840Z,15.30
2023-02-15T12:15:47.275Z,15.40
2023-02-15T12:17:51.455Z,15.50
2023-02-15T12:19:55.726Z,15.50
2023-02-15T12:21:59.056Z,15.40
2023-02-15T12:24:04.379Z,15.30
2023-02-15T12:26:06.900Z,15.30
2023-02-15T12:28:19.424Z,15.40
2023-02-15T12:30:23.978Z,15.40
2023-02-15T12:32:28.070Z,15.60
2023-02-15T12:34:31.864Z,15.60
2023-02-15T12:36:36.240Z,15.50
2023-02-15T12:38:38.965Z,15.60
2023-02-15T12:40:41.580Z,15.50
2023-02-15T12:42:45.284Z,15.20
2023-02-15T12:44:58.318Z,15.20
2023-02-15T12:47:02.472Z,15.10
2023-02-15T12:49:10.250Z,15.10
2023-02-15T12:51:15.050Z,15.00
2023-02-15T12:53:19.969Z,15.00
2023-02-15T12:55:24.742Z,14.90
2023-02-15T12:57:29.368Z,14.80
2023-02-15T12:59:31.859Z,14.90
2023-02-15T13:01:34.496Z,15.00
2023-02-15T13:03:38.623Z,15.10
2023-02-15T13:05:45.123Z,15.10
2023-02-15T13:07:49.861Z,15.10
2023-02-15T13:09:52.540Z,15.00
2023-02-15T13:11:55.055Z,14.90
2023-02-15T13:13:59.180Z,14.90
2023-02-15T13:16:03.084Z,15.00
2023-02-15T13:18:07.833Z,15.10
2023-02-15T13:20:13.249Z,15.10
2023-02-15T13:22:17.435Z,15.20
2023-02-15T13:24:21.953Z,15.20
2023-02-15T13:26:26.782Z,15.30
2023-02-15T13:28:38.022Z,15.30
2023-02-15T13:30:42.332Z,15.40
2023-02-15T13:32:46.449Z,15.50
2023-02-15T13:34:49.317Z,15.50
2023-02-15T13:36:54.216Z,15.60
2023-02-15T13:39:03.599Z,15.70
2023-02-15T13:41:08.137Z,15.70
2023-02-15T13:43:15.867Z,15.70
2023-02-15T13:45:24.312Z,15.60
2023-02-15T13:47:28.767Z,15.60
2023-02-15T13:49:38.112Z,15.70
2023-02-15T13:51:42.464Z,15.70
2023-02-15T13:53:50.064Z,15.70
2023-02-15T13:55:53.584Z,15.50
2023-02-15T13:58:03.665Z,15.40
2023-02-15T14:00:12.190Z,15.50
2023-02-15T14:02:29.908Z,14.90
2023-02-15T14:04:47.457Z,15.50
2023-02-15T14:07:03.072Z,15.50
2023-02-15T14:09:09.806Z,15.60
2023-02-15T14:11:15.031Z,15.50
2023-02-15T14:13:34.933Z,15.50
2023-02-15T14:15:39.274Z,15.60
2023-02-15T14:17:45.670Z,15.60
2023-02-15T14:19:50.322Z,15.70
2023-02-15T14:21:54.612Z,15.60
2023-02-15T14:24:08.861Z,15.50
2023-02-15T14:26:13.504Z,15.60
2023-02-15T14:28:17.892Z,15.50
2023-02-15T14:30:21.761Z,15.60
2023-02-15T14:32:27.801Z,15.60
2023-02-15T14:34:34.545Z,15.50
2023-02-15T14:36:37.121Z,15.60
2023-02-15T14:38:42.999Z,15.60
2023-02-15T14:41:04.298Z,15.40
2023-02-15T14:43:09.705Z,15.30
2023-02-15T14:45:17.263Z,15.40
2023-02-15T14:47:22.392Z,15.50
2023-02-15T14:49:26.327Z,15.50
2023-02-15T14:51:46.749Z,15.50
2023-02-15T14:53:49.548Z,15.60
2023-02-15T14:56:07.585Z,15.50
2023-02-15T14:58:12.740Z,15.50
2023-02-15T15:00:34.010Z,15.50
2023-02-15T15:02:49.548Z,15.60
2023-02-15T15:04:57.160Z,15.60
2023-02-15T15:07:01.652Z,15.60
2023-02-15T15:09:11.552Z,15.60
2023-02-15T15:11:43.036Z,15.50
2023-02-15T15:13:38.430Z,15.40
2023-02-15T15:15:46.739Z,15.40
2023-02-15T15:17:57.041Z,15.30
2023-02-15T15:20:00.598Z,15.20
2023-02-15T15:22:05.842Z,15.10
2023-02-15T15:24:08.324Z,15.00
2023-02-15T15:26:24.997Z,14.90
2023-02-15T15:28:45.231Z,14.90
2023-02-15T15:30:51.777Z,14.80
2023-02-15T15:32:56.335Z,14.70
2023-02-15T15:35:05.317Z,14.60
2023-02-15T15:37:13.364Z,14.50
2023-02-15T15:39:21.942Z,14.30
2023-02-15T15:41:28.428Z,14.20
2023-02-15T15:43:56.022Z,14.00
2023-02-15T15:46:11.734Z,13.90
2023-02-15T15:48:26.083Z,13.80
2023-02-15T15:50:29.017Z,13.70
2023-02-15T15:52:33.278Z,13.50
2023-02-15T15:54:38.605Z,13.50
2023-02-15T15:56:52.967Z,13.40
2023-02-15T15:58:57.537Z,13.30
2023-02-15T16:01:02.556Z,13.30
2023-02-15T16:03:05.682Z,13.20
2023-02-15T16:05:08.953Z,13.10
2023-02-15T16:07:17.274Z,13.10
2023-02-15T16:09:20.884Z,13.00
2023-02-15T16:11:25.297Z,12.90
2023-02-15T16:13:27.807Z,12.80
2023-02-15T16:15:33.091Z,12.80
2023-02-15T16:17:35.584Z,12.60
2023-02-15T16:19:39.778Z,12.60
2023-02-15T16:21:42.378Z,12.50
2023-02-15T16:23:52.676Z,12.40
2023-02-15T16:25:58.673Z,12.20
2023-02-15T16:28:07.249Z,12.10
2023-02-15T16:30:19.866Z,12.00
2023-02-15T16:32:25.061Z,12.00
2023-02-15T16:34:28.559Z,11.90
2023-02-15T16:36:31.712Z,11.90
2023-02-15T16:38:38.096Z,11.90
2023-02-15T16:40:44.100Z,11.70
2023-02-15T16:42:46.651Z,11.70
2023-02-15T16:44:51.421Z,11.60
2023-02-15T16:46:54.296Z,11.50
2023-02-15T16:48:58.911Z,11.30
2023-02-15T16:51:02.160Z,10.90
2023-02-15T16:53:06.223Z,10.60
2023-02-15T16:55:15.625Z,10.60
2023-02-15T16:57:20.865Z,10.50
2023-02-15T16:59:28.165Z,10.50
2023-02-15T17:01:32.387Z,10.50
2023-02-15T17:03:35.059Z,10.40
2023-02-15T17:05:42.783Z,10.40
2023-02-15T17:07:50.957Z,10.40
2023-02-15T17:09:54.007Z,10.30
2023-02-15T17:11:58.448Z,10.30
2023-02-15T17:14:15.172Z,10.30
2023-02-15T17:16:26.074Z,10.30
2023-02-15T17:18:30.060Z,10.20
2023-02-15T17:20:35.395Z,10.10
2023-02-15T17:22:39.173Z,10.00
2023-02-15T17:24:42.780Z,9.90
2023-02-15T17:26:47.060Z,9.60
2023-02-15T17:28:51.291Z,9.60
2023-02-15T17:30:54.981Z,9.40
2023-02-15T17:32:58.600Z,9.20
2023-02-15T17:35:04.419Z,9.20
2023-02-15T17:37:11.332Z,9.20
2023-02-15T17:39:22.560Z,9.20
2023-02-15T17:41:25.588Z,9.20
2023-02-15T17:43:28.120Z,9.10
2023-02-15T17:45:34.784Z,8.80
2023-02-15T17:47:37.426Z,8.60
2023-02-15T17:49:39.959Z,8.50
2023-02-15T17:51:42.579Z,8.40
2023-02-15T17:53:47.277Z,8.30
2023-02-15T17:55:49.765Z,8.40
2023-02-15T17:57:52.255Z,8.40
2023-02-15T18:00:12.974Z,8.50
2023-02-15T18:02:33.803Z,8.50
2023-02-15T18:04:55.116Z,8.50
2023-02-15T18:07:16.478Z,8.50
2023-02-15T18:09:37.986Z,8.60
2023-02-15T18:11:40.793Z,8.50
2023-02-15T18:13:43.312Z,8.50
2023-02-15T18:15:46.037Z,8.40
2023-02-15T18:17:48.565Z,8.30
2023-02-15T18:19:51.026Z,8.00
2023-02-15T18:21:55.128Z,7.70
2023-02-15T18:23:57.642Z,7.70
2023-02-15T18:26:00.121Z,7.60
2023-02-15T18:28:02.650Z,7.50
2023-02-15T18:30:06.294Z,7.40
2023-02-15T18:32:10.720Z,7.50
2023-02-15T18:34:17.973Z,7.60
2023-02-15T18:36:22.175Z,7.60
2023-02-15T18:38:24.695Z,7.60
2023-02-15T18:40:28.001Z,7.40
2023-02-15T18:42:31.527Z,7.30
2023-02-15T18:44:34.062Z,7.20
2023-02-15T18:46:36.528Z,7.10
2023-02-15T18:48:39.044Z,6.90
2023-02-15T18:50:41.757Z,6.80
2023-02-15T18:52:46.101Z,6.70
2023-02-15T18:54:50.379Z,6.60
2023-02-15T18:56:54.956Z,6.50
2023-02-15T18:58:57.536Z,6.50
2023-02-15T19:01:00.444Z,6.40
2023-02-15T19:03:03.217Z,6.30
2023-02-15T19:05:06.153Z,6.30
2023-02-15T19:07:12.448Z,6.30
2023-02-15T19:09:17.200Z,6.30
2023-02-15T19:11:22.419Z,6.20
2023-02-15T19:13:24.972Z,6.40
2023-02-15T19:15:29.503Z,6.50
2023-02-15T19:17:32.061Z,6.70
2023-02-15T19:19:34.696Z,6.80
2023-02-15T19:21:39.140Z,7.10
2023-02-15T19:23:41.799Z,7.30
2023-02-15T19:25:45.649Z,7.50
2023-02-15T19:27:49.462Z,7.70
2023-02-15T19:29:54.252Z,7.90
2023-02-15T19:32:00.164Z,8.10
2023-02-15T19:34:12.034Z,8.20
2023-02-15T19:36:23.086Z,8.40
2023-02-15T19:38:34.051Z,8.70
2023-02-15T19:40:40.376Z,8.70
2023-02-15T19:42:47.329Z,8.80
2023-02-15T19:44:54.830Z,8.80
2023-02-15T19:47:00.894Z,8.80
2023-02-15T19:49:07.124Z,8.80
2023-02-15T19:51:12.768Z,8.80
2023-02-15T19:53:22.786Z,8.90
2023-02-15T19:55:29.451Z,8.90
2023-02-15T19:57:34.587Z,8.90
2023-02-15T19:59:40.261Z,8.90
2023-02-15T20:01:46.084Z,8.90
2023-02-15T20:03:55.991Z,8.80
2023-02-15T20:06:03.445Z,8.80
2023-02-15T20:08:11.538Z,8.80
2023-02-15T20:10:20.403Z,8.70
2023-02-15T20:12:29.752Z,8.70
2023-02-15T20:14:35.348Z,8.60
2023-02-15T20:16:42.934Z,8.60
2023-02-15T20:18:52.206Z,8.60
2023-02-15T20:20:58.007Z,8.60
2023-02-15T20:23:03.714Z,8.50
2023-02-15T20:25:12.749Z,8.40
2023-02-15T20:27:19.480Z,8.40
2023-02-15T20:29:32.730Z,8.20
2023-02-15T20:31:47.979Z,8.20
2023-02-15T20:33:55.622Z,8.20
2023-02-15T20:36:06.820Z,8.10
2023-02-15T20:38:18.962Z,8.10
2023-02-15T20:40:27.070Z,7.90
2023-02-15T20:42:34.959Z,7.90
2023-02-15T20:44:43.634Z,7.90
2023-02-15T20:46:50.077Z,7.80
2023-02-15T20:48:55.316Z,7.70
2023-02-15T20:50:58.472Z,7.80
2023-02-15T20:53:03.003Z,7.80
2023-02-15T20:55:10.929Z,7.80
2023-02-15T20:57:16.976Z,8.30
2023-02-15T20:59:22.405Z,7.80
2023-02-15T21:01:26.919Z,7.80
2023-02-15T21:03:32.067Z,7.80
2023-02-15T21:05:35.706Z,7.80
2023-02-15T21:07:39.023Z,7.90
2023-02-15T21:09:42.535Z,7.90
2023-02-15T21:11:45.692Z,7.90
2023-02-15T21:13:49.486Z,7.90
2023-02-15T21:15:54.085Z,7.80
2023-02-15T21:17:58.986Z,7.80
2023-02-15T21:20:02.758Z,7.80
2023-02-15T21:22:06.647Z,7.80
2023-02-15T21:24:15.249Z,7.80
2023-02-15T21:26:19.998Z,7.80
2023-02-15T21:28:24.600Z,7.90
2023-02-15T21:30:29.351Z,7.80
2023-02-15T21:32:33.134Z,7.90
2023-02-15T21:34:36.675Z,7.90
2023-02-15T21:36:41.424Z,7.80
2023-02-15T21:38:45.003Z,8.10
2023-02-15T21:40:48.915Z,7.80
2023-02-15T21:43:11.216Z,7.70
2023-02-15T21:45:33.472Z,7.70
2023-02-15T21:47:51.283Z,7.70
2023-02-15T21:49:54.954Z,7.70
2023-02-15T21:52:14.578Z,7.60
2023-02-15T21:54:24.493Z,7.70
2023-02-15T21:56:28.989Z,7.70
2023-02-15T21:58:33.224Z,7.70
2023-02-15T22:00:36.803Z,7.70
2023-02-15T22:02:41.546Z,7.70
2023-02-15T22:04:46.364Z,7.70
2023-02-15T22:06:49.607Z,7.70
2023-02-15T22:08:53.373Z,7.70
2023-02-15T22:10:57.088Z,7.70
2023-02-15T22:13:01.531Z,7.70
2023-02-15T22:15:06.126Z,7.70
2023-02-15T22:17:14.338Z,7.70
2023-02-15T22:19:19.839Z,7.60
2023-02-15T22:21:27.290Z,7.60
2023-02-15T22:23:33.346Z,7.60
2023-02-15T22:25:38.301Z,7.60
2023-02-15T22:27:48.322Z,7.60
2023-02-15T22:29:54.589Z,7.60
2023-02-15T22:31:59.660Z,7.50
2023-02-15T22:34:03.501Z,7.40
2023-02-15T22:36:09.928Z,7.40
2023-02-15T22:38:13.487Z,7.30
2023-02-15T22:40:17.536Z,7.30
2023-02-15T22:42:25.103Z,7.30
2023-02-15T22:44:30.557Z,7.30
2023-02-15T22:46:34.141Z,7.30
2023-02-15T22:48:38.275Z,7.40
2023-02-15T22:50:40.907Z,7.40
2023-02-15T22:52:43.872Z,7.40
2023-02-15T22:54:46.761Z,7.50
2023-02-15T22:56:50.891Z,7.40
2023-02-15T22:58:55.551Z,7.40
2023-02-15T23:00:59.654Z,7.40
2023-02-15T23:03:02.504Z,7.50
2023-02-15T23:05:05.922Z,7.40
2023-02-15T23:07:12.348Z,7.40
2023-02-15T23:09:15.643Z,7.50
2023-02-15T23:11:18.218Z,7.50
2023-02-15T23:13:24.936Z,7.50
2023-02-15T23:15:26.191Z,7.50
2023-02-15T23:17:28.889Z,7.50
2023-02-15T23:19:31.934Z,7.40
2023-02-15T23:21:34.550Z,7.40
2023-02-15T23:23:37.918Z,7.40
2023-02-15T23:25:40.964Z,7.50
2023-02-15T23:27:58.713Z,7.40
2023-02-15T23:30:02.450Z,7.50
2023-02-15T23:32:05.597Z,7.40
2023-02-15T23:34:12.154Z,7.50
2023-02-15T23:36:23.427Z,7.40
2023-02-15T23:38:26.964Z,7.30
2023-02-15T23:40:47.613Z,7.30
2023-02-15T23:42:50.108Z,7.40
2023-02-15T23:44:53.628Z,7.40
2023-02-15T23:46:56.691Z,7.40
2023-02-15T23:48:59.216Z,7.30
2023-02-15T23:51:02.492Z,7.30
2023-02-15T23:53:05.428Z,7.40
2023-02-15T23:55:08.115Z,7.40
2023-02-15T23:57:11.183Z,7.40
2023-02-15T23:59:16.830Z,7.40
